Benton Ridge, Ohio
Current Conditions -  °F | °C
As of 12:53 AM on Wednesday 26 Nov 2014 (Local Time) from KFDY Reporting Station
Overcast Overcast  
Wind Chill: 29°   Ceiling: 1900
Heat Index: 29°   Visibility: 10mi
Dew Point: 21°   Wind: 3mph
Humidity: 72%   Direction: 90°E
Pressure: 30.18"   Gusts: NA
Location:  41°N, 83.79°W
Report Text: KFDY 260553Z AUTO 09003KT 10SM OVC019 M02/M06 A3018 RMK AO2 SLP224 T10171061 11011 21017 58009
Loading
Personal Weather Stations






























Interactive Weather Map New forecast layout! Learn more

10-Day Weather Forecast

Advertisements
Track Severe Weather on mobile